WetterOnline ( https://www.wetteronline.de )

Wetter aktuell Hülsede

Aktuelles Wetter: Wunstorf (57m)

6-stündlich | Neueste Meldungen
Ortszeit Temperatur Wetter
Sa, 15.06. 8:00 15.8° C leichte Schauer
Sa, 15.06. 2:00 15.5° C leicht bewölkt
Fr, 14.06. 20:00 19.0° C leicht bewölkt
Fr, 14.06. 14:00 20.2° C wolkig
Fr, 14.06. 8:00 14.0° C wolkig
Fr, 14.06. 2:00 13.2° C wolkig
Do, 13.06. 20:00 17.6° C wolkig
Do, 13.06. 14:00 14.8° C wolkig
Ortszeit Temperatur Wetter
Sa, 15.06. 10:00 16.4° C leicht bewölkt
Sa, 15.06. 9:00 14.8° C leicht bewölkt
Sa, 15.06. 8:00 15.8° C leichte Schauer
Sa, 15.06. 7:00 16.3° C leichter Regen
Sa, 15.06. 6:00 15.8° C bewölkt
Sa, 15.06. 5:00 15.7° C leicht bewölkt
Sa, 15.06. 4:00 16.2° C leicht bewölkt
Ortszeit Relative Feuchte Sichtweite
Sa, 15.06. 8:00 88% 7 km
Sa, 15.06. 2:00 78% 45 km
Fr, 14.06. 20:00 58% 45 km
Fr, 14.06. 14:00 42% 40 km
Fr, 14.06. 8:00 65% 50 km
Fr, 14.06. 2:00 68% 35 km
Do, 13.06. 20:00 46% 50 km
Do, 13.06. 14:00 50% 50 km
Ortszeit Relative Feuchte Sichtweite
Sa, 15.06. 10:00 78% 45 km
Sa, 15.06. 9:00 89% 25 km
Sa, 15.06. 8:00 88% 7 km
Sa, 15.06. 7:00 84% 15 km
Sa, 15.06. 6:00 81% 25 km
Sa, 15.06. 5:00 80% 35 km
Sa, 15.06. 4:00 78% 45 km
Ortszeit Niederschlagsmenge Niederschlagsart
Sa, 15.06. 8:00 1 l/m2 in 12 Std. Regen
Sa, 15.06. 2:00 keine Meldung -
Fr, 14.06. 20:00 0.0 l/m2 in 12 Std. -
Fr, 14.06. 14:00 keine Meldung -
Fr, 14.06. 8:00 0.0 l/m2 in 12 Std. -
Fr, 14.06. 2:00 keine Meldung -
Do, 13.06. 20:00 0.0 l/m2 in 12 Std. -
Do, 13.06. 14:00 keine Meldung -
Ortszeit Niederschlagsmenge Niederschlagsart
Sa, 15.06. 10:00 keine Meldung -
Sa, 15.06. 9:00 keine Meldung -
Sa, 15.06. 8:00 keine Meldung -
Sa, 15.06. 7:00 keine Meldung -
Sa, 15.06. 6:00 keine Meldung -
Sa, 15.06. 5:00 keine Meldung -
Sa, 15.06. 4:00 keine Meldung -
Ortszeit Stärke Spitze Richtung
km/h Bft. km/h Grad Sektor
Sa, 15.06. 8:00 25 4 - 180° S
Sa, 15.06. 2:00 14 3 - 120° SO
Fr, 14.06. 20:00 18 3 - 170° S
Fr, 14.06. 14:00 22 4 - 190° S
Fr, 14.06. 8:00 11 2 - 130° SO
Fr, 14.06. 2:00 11 2 - 120° SO
Do, 13.06. 20:00 7 2 - 160° S
Do, 13.06. 14:00 11 2 - 250° W
Ortszeit Stärke Spitze Richtung
km/h Bft. km/h Grad Sektor
Sa, 15.06. 10:00 18 3 - 240° SW
Sa, 15.06. 9:00 18 3 - 230° SW
Sa, 15.06. 8:00 25 4 - 180° S
Sa, 15.06. 7:00 18 3 - 170° S
Sa, 15.06. 6:00 14 3 - 110° O
Sa, 15.06. 5:00 18 3 - 130° SO
Sa, 15.06. 4:00 22 4 - 140° SO
Ortszeit Untergrenze Bedeckung Gattung
total tief tief mittel hoch
Sa, 15.06. 8:00 600 m 8/8 3/8 Cb As -
Sa, 15.06. 2:00 3000 m 7/8 5/8 - Ac Ci
Fr, 14.06. 20:00 1500 m 5/8 3/8 Sc Ac -
Fr, 14.06. 14:00 1500 m 7/8 4/8 Cu Ac -
Fr, 14.06. 8:00 2100 m 8/8 3/8 Sc Ns -
Fr, 14.06. 2:00 2400 m 7/8 3/8 Sc Ns -
Do, 13.06. 20:00 1500 m 7/8 1/8 Cu Ac Ci
Do, 13.06. 14:00 1200 m 7/8 5/8 Cu Ac -
Ortszeit Bedeckungsgrad in Achtel und Wolkenuntergrenze
Sa, 15.06. 10:00 3(600m)
Sa, 15.06. 9:00 1(210m) 3(1800m) 2(600m)
Sa, 15.06. 8:00 1(600m) 7(3000m) 3(1050m)
Sa, 15.06. 7:00 1(1050m) 3(1800m) 8(2400m)
Sa, 15.06. 6:00 2(750m) 5(1230m) 7(2700m)
Sa, 15.06. 5:00 7(2400m)
Sa, 15.06. 4:00 7(2400m)
Ortszeit Luftdruck NN (hPa) Tendenz (hPa in 3 Std.)
Sa, 15.06. 8:00 1000 - 0,9
Sa, 15.06. 2:00 1004 - 2,6
Fr, 14.06. 20:00 1007 - 0,7
Fr, 14.06. 14:00 1008 - 1,2
Fr, 14.06. 8:00 1010 - 1,1
Fr, 14.06. 2:00 1013 - 1,4
Do, 13.06. 20:00 1015 - 1,4
Do, 13.06. 14:00 1018 - 0,6
Ortszeit Luftdruck NN (hPa) Tendenz (hPa in 3 Std.)
Sa, 15.06. 10:00 1001 + 1,0
Sa, 15.06. 9:00 1001 + 0,3
Sa, 15.06. 8:00 1000 - 0,9
Sa, 15.06. 7:00 1000 - 1,6
Sa, 15.06. 6:00 1001 - 2,2
Sa, 15.06. 5:00 1001 - 2,8
Sa, 15.06. 4:00 1002 - 3,3
Ortszeit Schneehöhe (cm)
Sa, 15.06. 8:00 0
Sa, 15.06. 2:00 -
Fr, 14.06. 20:00 0
Fr, 14.06. 14:00 -
Fr, 14.06. 8:00 0
Fr, 14.06. 2:00 -
Do, 13.06. 20:00 0
Do, 13.06. 14:00 -
Ortszeit Schneehöhe (cm)
Sa, 15.06. 10:00 -
Sa, 15.06. 9:00 -
Sa, 15.06. 8:00 0
Sa, 15.06. 7:00 -
Sa, 15.06. 6:00 -
Sa, 15.06. 5:00 -
Sa, 15.06. 4:00 -
Link zu dieser Seite / Seite empfehlen

Das Wetter in ...